Time;durP1;ratioP1;P1;durP2;ratioP2;P2;SDS_P1;SDS_P2;PMS_P1;PMS_P2;Temp;Humidity;BMP_temperature;BMP_pressure;BME280_temperature;BME280_humidity;BME280_pressure;Samples;Min_cycle;Max_cycle;Signal;HPM_P1;HPM_P2
2021/04/08 00:00:47;;;;;;;0.88;0.60;;;3.50;99.90;;;;;;4428858;32;20120;-76
2021/04/08 00:03:12;;;;;;;0.77;0.77;;;3.50;99.90;;;;;;4429462;32;20072;-76
2021/04/08 00:05:38;;;;;;;1.80;0.68;;;3.60;99.90;;;;;;4427471;32;20065;-76
2021/04/08 00:08:03;;;;;;;0.70;0.70;;;3.60;99.90;;;;;;4428941;32;20082;-76
2021/04/08 00:10:29;;;;;;;0.30;0.30;;;3.60;99.90;;;;;;4435952;32;20062;-77
2021/04/08 00:12:54;;;;;;;0.30;0.30;;;3.60;99.90;;;;;;4443214;32;20069;-76
2021/04/08 00:15:20;;;;;;;0.75;0.55;;;3.60;99.90;;;;;;4443727;32;20082;-76
2021/04/08 00:17:46;;;;;;;3.42;1.60;;;3.60;99.90;;;;;;4443835;32;20072;-77
2021/04/08 00:20:15;;;;;;;0.40;0.40;;;3.60;99.90;;;;;;4443434;32;20135;-77
2021/04/08 00:22:41;;;;;;;0.43;0.43;;;3.60;99.90;;;;;;4443338;32;20453;-76
2021/04/08 00:25:07;;;;;;;0.55;0.55;;;3.60;99.90;;;;;;4442667;32;20471;-76
2021/04/08 00:27:33;;;;;;;0.57;0.57;;;3.60;99.90;;;;;;4443050;32;20076;-76
2021/04/08 00:29:58;;;;;;;0.22;0.22;;;3.50;99.90;;;;;;4443573;32;20506;-76
2021/04/08 00:32:24;;;;;;;0.40;0.40;;;3.60;99.90;;;;;;4443118;32;20085;-76
2021/04/08 00:34:49;;;;;;;0.20;0.20;;;3.50;99.90;;;;;;4443434;32;20111;-76
2021/04/08 00:37:15;;;;;;;3.60;1.15;;;3.50;99.90;;;;;;4444238;32;20081;-76
2021/04/08 00:39:40;;;;;;;0.30;0.30;;;3.50;99.90;;;;;;4443335;32;20069;-77
2021/04/08 00:42:06;;;;;;;0.77;0.57;;;3.50;99.90;;;;;;4443702;32;20120;-78
2021/04/08 00:44:33;;;;;;;0.32;0.32;;;3.50;99.90;;;;;;4443659;32;20432;-77
2021/04/08 00:46:58;;;;;;;1.08;0.98;;;3.50;99.90;;;;;;4443218;32;20080;-77
2021/04/08 00:49:24;;;;;;;0.40;0.40;;;3.50;99.90;;;;;;4443837;32;20503;-77
2021/04/08 00:51:49;;;;;;;2.20;1.33;;;3.50;99.90;;;;;;4443269;32;20064;-77
2021/04/08 00:54:15;;;;;;;0.32;0.32;;;3.50;99.90;;;;;;4442713;32;20516;-77
2021/04/08 00:56:40;;;;;;;0.30;0.30;;;3.60;99.90;;;;;;4443508;32;20077;-77
2021/04/08 00:59:07;;;;;;;0.60;0.60;;;3.60;99.90;;;;;;4443370;32;20108;-77
2021/04/08 01:01:32;;;;;;;0.30;0.30;;;3.40;99.90;;;;;;4427632;32;20070;-77
2021/04/08 01:03:58;;;;;;;0.40;0.40;;;3.50;99.90;;;;;;4429108;32;20082;-77
2021/04/08 01:06:23;;;;;;;0.85;0.43;;;3.50;99.90;;;;;;4428174;32;20072;-77
2021/04/08 01:08:49;;;;;;;0.32;0.32;;;3.50;99.90;;;;;;4427181;32;20121;-77
2021/04/08 01:11:14;;;;;;;0.30;0.30;;;3.50;99.90;;;;;;4440407;32;20061;-77
2021/04/08 01:13:41;;;;;;;0.70;0.70;;;3.40;99.90;;;;;;4442806;32;20411;-77
2021/04/08 01:16:14;;;;;;;0.30;0.30;;;3.50;99.90;;;;;;4443821;32;20073;-77
2021/04/08 01:19:19;;;;;;;0.52;0.50;;;3.50;99.90;;;;;;4443050;32;20115;-77
2021/04/08 01:21:52;;;;;;;2.87;1.17;;;3.50;99.90;;;;;;4422882;32;20077;-77
2021/04/08 01:24:44;;;;;;;0.30;0.30;;;3.60;99.90;;;;;;4442036;32;20088;-77
2021/04/08 01:27:38;;;;;;;0.22;0.22;;;3.50;99.90;;;;;;4432708;32;20069;-77
2021/04/08 01:30:36;;;;;;;0.40;0.40;;;3.40;99.90;;;;;;4435136;32;20077;-77
2021/04/08 01:33:01;;;;;;;0.40;0.40;;;3.40;99.90;;;;;;4435293;32;20136;-77
2021/04/08 01:35:30;;;;;;;0.30;0.30;;;3.50;99.90;;;;;;4445502;32;20061;-77
2021/04/08 01:38:05;;;;;;;0.37;0.37;;;3.50;99.90;;;;;;4446003;32;20073;-77
2021/04/08 01:40:32;;;;;;;0.37;0.37;;;3.40;99.90;;;;;;4445643;32;20121;-77
2021/04/08 01:43:00;;;;;;;0.57;0.57;;;3.40;99.90;;;;;;4445928;32;20097;-77
2021/04/08 01:45:28;;;;;;;0.30;0.30;;;3.30;99.90;;;;;;4445917;32;20859;-77
2021/04/08 01:47:54;;;;;;;0.45;0.45;;;3.30;99.90;;;;;;4445182;32;20057;-77
2021/04/08 01:50:22;;;;;;;6.03;1.25;;;3.40;99.90;;;;;;4446599;32;20457;-77
2021/04/08 01:52:49;;;;;;;0.62;0.62;;;3.40;99.90;;;;;;4446609;32;20152;-77
2021/04/08 01:55:16;;;;;;;25.55;1.00;;;3.50;99.90;;;;;;4444983;32;20093;-77
2021/04/08 01:57:44;;;;;;;0.30;0.30;;;3.60;99.90;;;;;;4445410;32;20064;-77
2021/04/08 02:00:12;;;;;;;0.30;0.30;;;3.70;99.90;;;;;;4445585;32;20069;-77
2021/04/08 02:02:42;;;;;;;0.75;0.68;;;3.60;99.90;;;;;;4445354;32;20077;-77
2021/04/08 02:05:10;;;;;;;0.32;0.32;;;3.60;99.90;;;;;;4446194;32;20065;-77
2021/04/08 02:07:37;;;;;;;0.30;0.30;;;3.60;99.90;;;;;;4445488;32;20123;-77
2021/04/08 02:10:06;;;;;;;0.47;0.47;;;3.50;99.90;;;;;;4440896;32;20542;-77
2021/04/08 02:12:33;;;;;;;0.52;0.50;;;3.40;99.90;;;;;;4429515;32;20518;-77
2021/04/08 02:15:00;;;;;;;0.95;0.95;;;3.30;99.90;;;;;;4430094;32;20094;-77
2021/04/08 02:17:26;;;;;;;0.65;0.55;;;3.30;99.90;;;;;;4430928;32;20073;-77
2021/04/08 02:19:53;;;;;;;0.37;0.37;;;3.30;99.90;;;;;;4429929;32;20069;-77
2021/04/08 02:22:19;;;;;;;0.30;0.30;;;3.40;99.90;;;;;;4429919;32;20073;-77
2021/04/08 02:24:47;;;;;;;0.95;0.88;;;3.40;99.90;;;;;;4429137;32;20085;-77
2021/04/08 02:27:12;;;;;;;2.90;2.05;;;3.50;99.90;;;;;;4430436;32;20082;-77
2021/04/08 02:29:39;;;;;;;2.42;1.92;;;3.50;99.90;;;;;;4429034;32;20054;-77
2021/04/08 02:32:07;;;;;;;0.52;0.52;;;3.50;99.90;;;;;;4430354;32;20420;-77
2021/04/08 02:34:34;;;;;;;2.15;1.55;;;3.50;99.90;;;;;;4429283;32;20353;-77
2021/04/08 02:36:59;;;;;;;0.40;0.40;;;3.40;99.90;;;;;;4429693;32;20086;-77
2021/04/08 02:39:25;;;;;;;0.40;0.40;;;3.40;99.90;;;;;;4428637;32;20057;-77
2021/04/08 02:41:50;;;;;;;0.62;0.62;;;3.40;99.90;;;;;;4429843;32;20081;-77
2021/04/08 02:44:16;;;;;;;8.35;1.23;;;3.40;99.90;;;;;;4429656;32;20073;-77
2021/04/08 02:46:42;;;;;;;1.75;1.42;;;3.40;99.90;;;;;;4429898;32;20081;-77
2021/04/08 02:49:08;;;;;;;4.85;1.48;;;3.40;99.90;;;;;;4429522;32;20558;-77
2021/04/08 02:51:42;;;;;;;0.65;0.45;;;3.40;99.90;;;;;;4430912;32;20065;-77
2021/04/08 02:54:19;;;;;;;0.68;0.68;;;3.50;99.90;;;;;;4429734;32;20078;-77
2021/04/08 02:56:50;;;;;;;0.75;0.75;;;3.50;99.90;;;;;;4429646;32;20065;-77
2021/04/08 02:59:21;;;;;;;2.55;1.15;;;3.50;99.90;;;;;;4429834;32;20133;-77
2021/04/08 03:02:04;;;;;;;0.40;0.40;;;3.50;99.90;;;;;;4430682;32;20593;-77
2021/04/08 03:04:34;;;;;;;2.03;1.10;;;3.60;99.90;;;;;;4428931;32;20078;-77
2021/04/08 03:07:00;;;;;;;0.57;0.57;;;3.50;99.90;;;;;;4429571;32;20493;-77
2021/04/08 03:09:34;;;;;;;0.40;0.40;;;3.50;99.90;;;;;;4429426;32;20497;-77
2021/04/08 03:12:03;;;;;;;0.37;0.37;;;3.50;99.90;;;;;;4444707;32;20061;-77
2021/04/08 03:14:33;;;;;;;0.40;0.40;;;3.60;99.90;;;;;;4445201;32;20069;-77
2021/04/08 03:17:00;;;;;;;0.43;0.43;;;3.60;99.90;;;;;;4444876;32;20090;-77
2021/04/08 03:19:29;;;;;;;0.43;0.43;;;3.60;99.90;;;;;;4445558;32;20058;-77
2021/04/08 03:21:57;;;;;;;1.20;1.10;;;3.50;99.90;;;;;;4444836;32;20123;-77
2021/04/08 03:24:24;;;;;;;0.40;0.40;;;3.50;99.90;;;;;;4444826;32;20086;-77
2021/04/08 03:26:50;;;;;;;0.37;0.37;;;3.60;99.90;;;;;;4444196;32;20074;-77
2021/04/08 03:29:16;;;;;;;2.30;1.45;;;3.50;99.90;;;;;;4444337;32;20077;-77
2021/04/08 03:31:44;;;;;;;0.25;0.25;;;3.50;99.90;;;;;;4444661;32;20069;-77
2021/04/08 03:34:11;;;;;;;0.55;0.55;;;3.50;99.90;;;;;;4445201;32;20548;-77
2021/04/08 03:36:37;;;;;;;0.30;0.30;;;3.50;99.90;;;;;;4444009;32;20069;-77
2021/04/08 03:39:05;;;;;;;0.40;0.40;;;3.40;99.90;;;;;;4443850;32;20085;-77
2021/04/08 03:41:36;;;;;;;0.40;0.40;;;3.40;99.90;;;;;;4444455;32;20497;-77
2021/04/08 03:44:02;;;;;;;;;;;3.40;99.90;;;;;;4445052;32;20430;-77
2021/04/08 03:46:28;;;;;;;0.60;0.60;;;3.50;99.90;;;;;;4444560;32;19940;-77
2021/04/08 03:48:55;;;;;;;0.95;0.93;;;3.50;99.90;;;;;;4443993;32;20514;-77
2021/04/08 03:51:25;;;;;;;3.75;2.15;;;3.40;99.90;;;;;;4443707;32;20085;-77
2021/04/08 03:53:51;;;;;;;0.50;0.50;;;3.40;99.90;;;;;;4444263;32;20139;-77
2021/04/08 03:56:19;;;;;;;0.30;0.30;;;3.40;99.90;;;;;;4444907;32;20080;-77
2021/04/08 03:58:45;;;;;;;0.35;0.35;;;3.40;99.90;;;;;;4443862;32;20056;-77
2021/04/08 04:01:13;;;;;;;1.23;0.82;;;3.30;99.90;;;;;;4444162;32;20502;-77
2021/04/08 04:03:38;;;;;;;0.55;0.37;;;3.30;99.90;;;;;;4444017;32;20131;-77
2021/04/08 04:06:08;;;;;;;17.65;0.65;;;3.20;99.90;;;;;;4443923;32;20072;-77
2021/04/08 04:08:34;;;;;;;0.30;0.30;;;3.20;99.90;;;;;;4443497;32;20122;-77
2021/04/08 04:11:00;;;;;;;0.30;0.30;;;3.30;99.90;;;;;;4436309;32;20070;-77
2021/04/08 04:13:26;;;;;;;1.02;1.02;;;3.30;99.90;;;;;;4429366;32;20094;-77
2021/04/08 04:15:52;;;;;;;0.30;0.30;;;3.30;99.90;;;;;;4428517;32;20064;-77
2021/04/08 04:18:19;;;;;;;4.28;1.42;;;3.30;99.90;;;;;;4428721;32;20074;-77
2021/04/08 04:20:44;;;;;;;0.80;0.80;;;3.30;99.90;;;;;;4428312;32;20069;-77
2021/04/08 04:23:11;;;;;;;3.92;1.70;;;3.40;99.90;;;;;;4427500;32;20793;-77
2021/04/08 04:25:36;;;;;;;1.35;1.25;;;3.40;99.90;;;;;;4428261;32;20343;-77
2021/04/08 04:28:02;;;;;;;0.30;0.30;;;3.30;99.90;;;;;;4428319;32;20074;-77
2021/04/08 04:30:28;;;;;;;0.30;0.30;;;3.40;99.90;;;;;;4429278;32;20117;-77
2021/04/08 04:32:54;;;;;;;0.20;0.20;;;3.40;99.90;;;;;;4428770;32;20514;-77
2021/04/08 04:35:20;;;;;;;0.30;0.30;;;3.40;99.90;;;;;;4428754;32;20123;-77
2021/04/08 04:37:46;;;;;;;2.83;0.80;;;3.30;99.90;;;;;;4428148;32;20177;-77
2021/04/08 04:40:12;;;;;;;0.52;0.50;;;3.30;99.90;;;;;;4427996;32;20077;-77
2021/04/08 04:42:38;;;;;;;0.40;0.40;;;3.40;99.90;;;;;;4427079;32;20082;-77
2021/04/08 04:45:05;;;;;;;1.12;0.65;;;3.40;99.90;;;;;;4428333;32;20135;-77
2021/04/08 04:47:31;;;;;;;0.37;0.37;;;3.40;99.90;;;;;;4428872;32;20069;-77
2021/04/08 04:49:56;;;;;;;0.50;0.50;;;3.40;99.90;;;;;;4427905;32;20124;-77
2021/04/08 04:52:22;;;;;;;0.70;0.70;;;3.40;99.90;;;;;;4427947;32;20069;-77
2021/04/08 04:54:47;;;;;;;4.75;2.25;;;3.40;99.90;;;;;;4427984;32;20065;-77
2021/04/08 04:57:13;;;;;;;0.68;0.68;;;3.30;99.90;;;;;;4428131;32;20064;-77
2021/04/08 04:59:39;;;;;;;0.30;0.30;;;3.30;99.90;;;;;;4428801;32;20070;-77
2021/04/08 05:02:05;;;;;;;7.47;1.00;;;3.30;99.90;;;;;;4427333;32;20081;-77
2021/04/08 05:04:30;;;;;;;2.72;0.85;;;3.40;99.90;;;;;;4424257;32;20073;-77
2021/04/08 05:06:56;;;;;;;1.73;0.60;;;3.50;99.90;;;;;;4430821;32;20077;-77
2021/04/08 05:09:21;;;;;;;0.40;0.40;;;3.40;99.90;;;;;;4425600;32;20079;-77
2021/04/08 05:11:47;;;;;;;2.62;1.58;;;3.40;99.90;;;;;;4438084;32;20058;-77
2021/04/08 05:14:12;;;;;;;0.70;0.70;;;3.30;99.90;;;;;;4433055;32;20479;-77
2021/04/08 05:16:38;;;;;;;0.22;0.22;;;3.30;99.90;;;;;;4431982;32;20061;-77
2021/04/08 05:19:03;;;;;;;0.30;0.30;;;3.30;99.90;;;;;;4429863;32;20069;-77
2021/04/08 05:21:29;;;;;;;2.97;2.30;;;3.30;99.90;;;;;;4430459;32;20070;-77
2021/04/08 05:23:54;;;;;;;0.40;0.40;;;3.40;99.90;;;;;;4430057;32;20132;-77
2021/04/08 05:26:20;;;;;;;0.50;0.50;;;3.40;99.90;;;;;;4430747;32;20061;-77
2021/04/08 05:28:46;;;;;;;0.30;0.30;;;3.40;99.90;;;;;;4430468;32;20133;-77
2021/04/08 05:31:11;;;;;;;8.98;1.10;;;3.40;99.90;;;;;;4430465;32;20133;-78
2021/04/08 05:33:37;;;;;;;0.60;0.60;;;3.30;99.90;;;;;;4431285;32;20068;-77
2021/04/08 05:36:03;;;;;;;0.62;0.57;;;3.40;99.90;;;;;;4430724;32;20053;-77
2021/04/08 05:38:29;;;;;;;0.40;0.40;;;3.40;99.90;;;;;;4429751;32;20101;-77
2021/04/08 05:40:54;;;;;;;0.50;0.50;;;3.50;99.90;;;;;;4431639;32;20066;-77
2021/04/08 05:43:20;;;;;;;1.62;1.52;;;3.50;99.90;;;;;;4430740;32;20076;-78
2021/04/08 05:45:46;;;;;;;0.30;0.30;;;3.50;99.90;;;;;;4429919;32;20754;-78
2021/04/08 05:48:13;;;;;;;0.55;0.55;;;3.50;99.90;;;;;;4429803;32;20085;-77
2021/04/08 05:50:39;;;;;;;1.35;1.25;;;3.60;99.90;;;;;;4431189;32;20515;-77
2021/04/08 05:53:05;;;;;;;0.52;0.52;;;3.60;99.90;;;;;;4429782;32;20142;-78
2021/04/08 05:55:30;;;;;;;0.40;0.40;;;3.60;99.90;;;;;;4430111;32;20062;-77
2021/04/08 05:57:56;;;;;;;1.27;1.00;;;3.70;99.90;;;;;;4433846;32;20061;-76
2021/04/08 06:00:22;;;;;;;3.35;0.68;;;3.60;99.90;;;;;;4445503;32;20082;-77
2021/04/08 06:02:48;;;;;;;0.45;0.45;;;3.50;99.90;;;;;;4445029;32;20100;-77
2021/04/08 06:05:14;;;;;;;0.30;0.30;;;3.50;99.90;;;;;;4445140;32;20501;-77
2021/04/08 06:07:39;;;;;;;0.45;0.45;;;3.60;99.90;;;;;;4433635;32;20065;-77
2021/04/08 06:10:05;;;;;;;2.55;0.95;;;3.60;99.90;;;;;;4431392;32;20070;-77
2021/04/08 06:12:31;;;;;;;0.40;0.40;;;3.60;99.90;;;;;;4429181;32;20081;-77
2021/04/08 06:14:57;;;;;;;0.55;0.55;;;3.60;99.90;;;;;;4430557;32;20062;-77
2021/04/08 06:17:23;;;;;;;0.50;0.50;;;3.60;99.90;;;;;;4429521;32;20069;-76
2021/04/08 06:19:48;;;;;;;5.25;0.75;;;3.60;99.90;;;;;;4429711;32;20140;-76
2021/04/08 06:22:14;;;;;;;0.30;0.30;;;3.80;99.90;;;;;;4429335;32;20069;-76
2021/04/08 06:24:40;;;;;;;0.30;0.30;;;3.80;99.90;;;;;;4429185;32;20073;-77
2021/04/08 06:27:06;;;;;;;0.60;0.60;;;3.80;99.90;;;;;;4430469;32;20054;-77
2021/04/08 06:29:32;;;;;;;0.32;0.32;;;3.90;99.90;;;;;;4428844;32;20073;-77
2021/04/08 06:31:58;;;;;;;0.60;0.60;;;3.90;99.90;;;;;;4429313;32;20070;-77
2021/04/08 06:34:23;;;;;;;0.73;0.73;;;3.90;99.90;;;;;;4429213;32;20085;-77
2021/04/08 06:36:49;;;;;;;1.30;1.20;;;3.90;99.90;;;;;;4429443;32;20116;-77
2021/04/08 06:39:14;;;;;;;0.85;0.85;;;3.80;99.90;;;;;;4428689;32;20089;-77
2021/04/08 06:41:41;;;;;;;3.35;1.40;;;4.00;99.90;;;;;;4428851;32;20077;-77
2021/04/08 06:44:08;;;;;;;9.65;0.85;;;4.00;99.90;;;;;;4429123;32;20069;-77
2021/04/08 06:46:37;;;;;;;10.65;0.90;;;3.90;99.90;;;;;;4428736;32;20474;-77
2021/04/08 06:49:28;;;;;;;3.30;1.08;;;4.10;99.90;;;;;;4429042;32;20073;-77
2021/04/08 06:51:57;;;;;;;0.40;0.40;;;4.10;99.90;;;;;;4403513;32;20072;-76
2021/04/08 06:54:23;;;;;;;0.52;0.52;;;4.30;99.90;;;;;;4428998;32;20065;-76
2021/04/08 06:56:50;;;;;;;1.65;1.15;;;4.20;99.90;;;;;;4428533;32;20073;-77
2021/04/08 06:59:16;;;;;;;0.30;0.30;;;4.30;99.90;;;;;;4432661;32;20138;-77
2021/04/08 07:01:44;;;;;;;0.40;0.40;;;4.20;99.90;;;;;;4428704;32;20057;-77
2021/04/08 07:04:10;;;;;;;3.72;0.60;;;4.20;99.90;;;;;;4429354;32;20057;-76
2021/04/08 07:06:36;;;;;;;0.40;0.40;;;4.10;99.90;;;;;;4433365;32;20471;-77
2021/04/08 07:09:05;;;;;;;3.17;1.37;;;4.10;99.90;;;;;;4440982;32;20121;-77
2021/04/08 07:11:31;;;;;;;0.62;0.62;;;4.10;99.90;;;;;;4428444;32;20073;-78
2021/04/08 07:13:56;;;;;;;0.60;0.55;;;4.10;99.90;;;;;;4428767;32;20073;-77
2021/04/08 07:16:22;;;;;;;0.40;0.40;;;4.10;99.90;;;;;;4430155;32;20069;-77
2021/04/08 07:18:49;;;;;;;1.65;0.93;;;4.10;99.90;;;;;;4428672;32;20082;-77
2021/04/08 07:21:15;;;;;;;0.65;0.65;;;4.10;99.90;;;;;;4429310;32;20629;-77
2021/04/08 07:24:09;;;;;;;1.45;1.35;;;4.20;99.90;;;;;;4429037;32;20160;-77
2021/04/08 07:26:53;;;;;;;0.35;0.35;;;4.10;99.90;;;;;;4418560;32;20061;-76
2021/04/08 07:29:20;;;;;;;0.30;0.30;;;4.10;99.90;;;;;;4429599;32;20081;-77
2021/04/08 07:31:46;;;;;;;0.70;0.62;;;4.20;99.90;;;;;;4428987;32;20091;-77
2021/04/08 07:34:11;;;;;;;1.30;0.85;;;4.20;99.90;;;;;;4429384;32;20081;-77
2021/04/08 07:36:39;;;;;;;0.40;0.40;;;4.30;99.90;;;;;;4427977;32;20062;-77
2021/04/08 07:39:14;;;;;;;2.72;1.40;;;4.40;99.90;;;;;;4429012;32;20061;-77
2021/04/08 07:41:40;;;;;;;0.30;0.30;;;4.40;99.90;;;;;;4429541;32;20083;-77
2021/04/08 07:44:10;;;;;;;1.80;0.93;;;4.50;99.90;;;;;;4429845;32;20509;-77
2021/04/08 07:46:44;;;;;;;0.65;0.57;;;4.60;99.90;;;;;;4428376;32;20546;-77
2021/04/08 07:49:31;;;;;;;1.05;0.93;;;4.60;99.90;;;;;;4429388;32;20077;-76
2021/04/08 07:51:58;;;;;;;0.30;0.30;;;4.60;99.90;;;;;;4416932;32;20065;-78
2021/04/08 07:54:24;;;;;;;0.62;0.62;;;4.80;99.90;;;;;;4427284;32;20470;-77
2021/04/08 07:56:50;;;;;;;0.30;0.30;;;4.90;99.90;;;;;;4428296;32;20235;-77
2021/04/08 07:59:26;;;;;;;0.40;0.40;;;5.00;99.90;;;;;;4429481;32;20495;-77
2021/04/08 08:02:02;;;;;;;0.40;0.40;;;5.10;99.90;;;;;;4428391;32;20074;-77
2021/04/08 08:04:29;;;;;;;0.30;0.30;;;5.10;99.90;;;;;;4429113;32;20076;-77
2021/04/08 08:06:55;;;;;;;0.37;0.37;;;4.90;99.90;;;;;;4436044;32;20072;-78
2021/04/08 08:09:23;;;;;;;1.65;1.15;;;5.00;99.90;;;;;;4445028;32;20066;-78
2021/04/08 08:11:51;;;;;;;0.70;0.70;;;5.10;99.90;;;;;;4414052;32;20077;-78
2021/04/08 08:14:35;;;;;;;0.50;0.50;;;5.20;99.90;;;;;;4412705;32;20511;-76
2021/04/08 08:17:04;;;;;;;0.62;0.62;;;5.10;99.90;;;;;;4413303;32;20443;-77
2021/04/08 08:19:31;;;;;;;0.68;0.68;;;5.30;99.90;;;;;;4412615;32;20078;-77
2021/04/08 08:21:57;;;;;;;9.73;1.17;;;5.40;99.90;;;;;;4412803;32;20094;-78
2021/04/08 08:24:23;;;;;;;0.50;0.50;;;5.50;99.90;;;;;;4412412;32;20127;-77
2021/04/08 08:26:50;;;;;;;3.05;2.10;;;5.70;99.90;;;;;;4412853;32;20166;-77
2021/04/08 08:29:18;;;;;;;0.40;0.40;;;5.50;99.90;;;;;;4412267;32;20416;-77
2021/04/08 08:31:47;;;;;;;0.30;0.30;;;5.40;99.90;;;;;;4413591;32;20061;-77
2021/04/08 08:34:33;;;;;;;2.65;1.17;;;5.40;99.90;;;;;;4414880;32;20079;-77
2021/04/08 08:37:03;;;;;;;0.30;0.30;;;5.40;99.90;;;;;;4403168;32;20081;-77
2021/04/08 08:39:32;;;;;;;2.92;1.00;;;5.50;99.90;;;;;;4416128;32;20432;-78
2021/04/08 08:42:00;;;;;;;1.95;1.42;;;5.60;99.90;;;;;;4416017;32;20510;-77
2021/04/08 08:44:27;;;;;;;1.45;0.60;;;5.70;99.90;;;;;;4416019;32;20069;-77
2021/04/08 08:47:19;;;;;;;0.32;0.32;;;5.70;99.90;;;;;;4435279;32;20081;-78
2021/04/08 08:49:52;;;;;;;1.00;0.45;;;5.90;99.90;;;;;;4435406;32;20081;-78
2021/04/08 08:52:23;;;;;;;0.40;0.40;;;6.10;99.90;;;;;;4446961;32;20065;-78
2021/04/08 08:54:49;;;;;;;;;;;6.10;99.90;;;;;;4446194;32;20077;-78
2021/04/08 08:57:16;;;;;;;0.30;0.30;;;6.00;99.90;;;;;;4446724;32;19948;-78
2021/04/08 08:59:43;;;;;;;1.08;0.95;;;6.10;99.90;;;;;;4431293;32;20053;-77
2021/04/08 09:02:10;;;;;;;0.30;0.30;;;6.30;99.90;;;;;;4432121;32;20086;-78
2021/04/08 09:04:35;;;;;;;1.55;0.77;;;6.50;99.90;;;;;;4430589;32;20088;-78
2021/04/08 09:07:05;;;;;;;1.73;0.90;;;6.40;99.90;;;;;;4430843;32;20502;-78
2021/04/08 09:09:32;;;;;;;0.30;0.30;;;6.30;99.90;;;;;;4431893;32;20072;-78
2021/04/08 09:12:02;;;;;;;0.30;0.30;;;6.20;99.90;;;;;;4446502;32;20061;-78
2021/04/08 09:14:28;;;;;;;0.45;0.45;;;6.30;99.90;;;;;;4446906;32;20086;-78
2021/04/08 09:16:54;;;;;;;0.45;0.45;;;6.40;99.90;;;;;;4445988;32;20066;-78
2021/04/08 09:19:30;;;;;;;0.30;0.30;;;6.50;99.90;;;;;;4446676;32;20080;-78
2021/04/08 09:21:58;;;;;;;0.20;0.20;;;6.30;99.90;;;;;;4447572;32;20069;-78
2021/04/08 09:24:48;;;;;;;0.40;0.40;;;6.20;99.90;;;;;;4446214;32;20064;-78
2021/04/08 09:27:21;;;;;;;0.52;0.52;;;6.30;99.90;;;;;;4446352;32;20193;-78
2021/04/08 09:29:51;;;;;;;0.30;0.30;;;6.50;99.90;;;;;;4446275;32;20609;-77
2021/04/08 09:32:22;;;;;;;0.52;0.52;;;6.50;99.90;;;;;;4446474;32;20131;-78
2021/04/08 09:35:09;;;;;;;0.37;0.37;;;6.50;99.90;;;;;;4431722;32;20089;-76
2021/04/08 09:37:56;;;;;;;0.43;0.43;;;6.50;99.90;;;;;;4434126;32;20068;-77
2021/04/08 09:40:26;;;;;;;0.25;0.25;;;6.40;99.90;;;;;;4413986;32;660292;-77
2021/04/08 09:43:02;;;;;;;10.52;0.60;;;6.60;99.90;;;;;;4445866;32;20176;-76
2021/04/08 09:45:28;;;;;;;0.32;0.32;;;6.90;99.90;;;;;;4445546;32;20066;-78
2021/04/08 09:48:12;;;;;;;0.30;0.30;;;7.10;99.90;;;;;;4446188;32;20093;-78
2021/04/08 09:50:56;;;;;;;0.40;0.40;;;7.10;99.90;;;;;;4446046;32;20136;-77
2021/04/08 09:53:23;;;;;;;0.40;0.40;;;7.10;99.90;;;;;;4445836;32;20069;-77
2021/04/08 09:55:51;;;;;;;0.30;0.30;;;6.90;99.90;;;;;;4447855;32;20065;-77
2021/04/08 09:58:28;;;;;;;0.30;0.30;;;6.90;99.90;;;;;;4439815;32;20535;-78
2021/04/08 10:00:56;;;;;;;0.68;0.68;;;6.70;99.90;;;;;;4429979;32;20053;-77
2021/04/08 10:03:28;;;;;;;2.60;0.40;;;7.00;99.90;;;;;;4430073;32;20522;-77
2021/04/08 10:05:54;;;;;;;7.32;0.68;;;7.50;99.90;;;;;;4429618;32;20066;-77
2021/04/08 10:08:22;;;;;;;0.85;0.70;;;7.50;99.90;;;;;;4447863;32;20138;-77
2021/04/08 10:10:48;;;;;;;0.30;0.30;;;7.20;99.90;;;;;;4438500;32;20076;-76
2021/04/08 10:13:15;;;;;;;0.50;0.50;;;7.10;99.90;;;;;;4429265;32;20066;-77
2021/04/08 10:15:41;;;;;;;1.27;0.70;;;7.30;99.90;;;;;;4430537;32;20178;-77
2021/04/08 10:18:14;;;;;;;0.30;0.30;;;7.70;99.90;;;;;;4430853;32;20097;-77
2021/04/08 10:20:40;;;;;;;0.37;0.37;;;8.10;99.90;;;;;;4430142;32;20169;-77
2021/04/08 10:23:06;;;;;;;0.30;0.30;;;8.20;99.90;;;;;;4430134;32;20586;-77
2021/04/08 10:25:33;;;;;;;0.30;0.30;;;8.70;99.90;;;;;;4431285;32;20061;-77
2021/04/08 10:27:58;;;;;;;0.35;0.35;;;8.70;99.90;;;;;;4430339;32;20061;-77
2021/04/08 10:30:25;;;;;;;1.17;0.50;;;8.80;99.60;;;;;;4430622;32;20645;-77
2021/04/08 10:32:51;;;;;;;1.98;1.10;;;9.00;99.70;;;;;;4431151;32;20069;-78
2021/04/08 10:35:23;;;;;;;0.40;0.40;;;9.40;99.10;;;;;;4429924;32;20073;-76
2021/04/08 10:38:05;;;;;;;5.78;0.75;;;9.30;98.50;;;;;;4430201;32;20081;-76
2021/04/08 10:40:32;;;;;;;3.62;1.17;;;8.70;99.00;;;;;;4429836;32;20380;-76
2021/04/08 10:43:16;;;;;;;0.30;0.30;;;8.30;99.40;;;;;;4430878;32;20097;-77
2021/04/08 10:45:58;;;;;;;0.75;0.73;;;8.20;99.90;;;;;;4429756;32;20124;-77
2021/04/08 10:48:27;;;;;;;0.20;0.20;;;8.00;99.70;;;;;;4429220;32;20471;-77
2021/04/08 10:50:54;;;;;;;6.30;1.23;;;8.10;99.80;;;;;;4429275;32;20075;-77
2021/04/08 10:53:22;;;;;;;0.37;0.37;;;8.60;99.30;;;;;;4429261;32;20120;-77
2021/04/08 10:55:48;;;;;;;0.20;0.20;;;9.20;98.30;;;;;;4429741;32;20073;-78
2021/04/08 10:58:29;;;;;;;0.30;0.30;;;9.70;97.80;;;;;;4436461;32;20069;-78
2021/04/08 11:00:55;;;;;;;;;;;9.90;96.00;;;;;;4446364;32;20089;-77
2021/04/08 11:03:22;;;;;;;0.93;0.62;;;9.40;96.40;;;;;;4445151;32;19937;-77
2021/04/08 11:05:48;;;;;;;0.30;0.30;;;8.90;97.20;;;;;;4444803;32;20538;-77
2021/04/08 11:08:14;;;;;;;2.33;1.48;;;8.10;98.60;;;;;;4429308;32;20054;-77
2021/04/08 11:10:40;;;;;;;1.37;1.00;;;8.00;99.60;;;;;;4437559;32;20158;-77
2021/04/08 11:13:06;;;;;;;0.50;0.50;;;7.80;99.40;;;;;;4444363;32;20086;-77
2021/04/08 11:15:33;;;;;;;1.25;0.75;;;7.60;99.90;;;;;;4445204;32;20128;-77
2021/04/08 11:18:10;;;;;;;0.32;0.32;;;7.60;99.90;;;;;;4445180;32;20134;-77
2021/04/08 11:20:38;;;;;;;0.20;0.20;;;7.30;99.90;;;;;;4446218;32;20557;-77
2021/04/08 11:23:06;;;;;;;0.30;0.30;;;7.40;99.90;;;;;;4444295;32;20057;-77
2021/04/08 11:25:33;;;;;;;0.30;0.30;;;7.30;99.00;;;;;;4445615;32;20529;-78
2021/04/08 11:28:00;;;;;;;0.30;0.30;;;7.40;99.20;;;;;;4446225;32;20073;-78
2021/04/08 11:30:30;;;;;;;2.67;0.85;;;7.40;99.10;;;;;;4444885;32;20064;-78
2021/04/08 11:32:57;;;;;;;1.65;0.95;;;7.60;98.70;;;;;;4444564;32;20517;-78
2021/04/08 11:35:30;;;;;;;8.38;1.55;;;7.70;99.00;;;;;;4444363;32;20576;-78
2021/04/08 11:38:06;;;;;;;0.30;0.30;;;8.00;99.40;;;;;;4444991;32;20073;-78
2021/04/08 11:40:32;;;;;;;0.40;0.40;;;8.20;98.50;;;;;;4446084;32;20475;-78
2021/04/08 11:42:57;;;;;;;0.30;0.30;;;8.40;98.80;;;;;;4445414;32;20589;-78
2021/04/08 11:45:29;;;;;;;2.65;0.70;;;8.70;98.20;;;;;;4445028;32;20077;-77
2021/04/08 11:48:06;;;;;;;0.20;0.20;;;8.70;98.20;;;;;;4444963;32;20065;-77
2021/04/08 11:50:35;;;;;;;2.90;1.85;;;9.20;97.90;;;;;;4444913;32;20370;-77
2021/04/08 11:53:03;;;;;;;0.20;0.20;;;9.40;97.40;;;;;;4445107;32;20120;-77
2021/04/08 11:55:47;;;;;;;4.20;0.70;;;9.30;96.80;;;;;;4444920;32;20484;-77
2021/04/08 11:58:31;;;;;;;0.30;0.30;;;9.20;95.30;;;;;;4439651;32;20074;-77
2021/04/08 12:01:15;;;;;;;0.30;0.30;;;9.10;94.70;;;;;;4429783;32;20530;-78
2021/04/08 12:03:43;;;;;;;4.28;1.00;;;9.00;95.50;;;;;;4429390;32;20120;-77
2021/04/08 12:06:17;;;;;;;0.30;0.30;;;8.80;95.50;;;;;;4431405;32;20125;-78
2021/04/08 12:08:46;;;;;;;0.40;0.40;;;8.80;95.40;;;;;;4443991;32;20073;-79
2021/04/08 12:11:14;;;;;;;0.47;0.30;;;8.30;96.30;;;;;;4433120;32;20084;-78
2021/04/08 12:13:47;;;;;;;0.30;0.30;;;8.10;96.80;;;;;;4429057;32;20632;-78
2021/04/08 12:16:22;;;;;;;0.30;0.30;;;7.70;97.10;;;;;;4429010;32;20073;-75
2021/04/08 12:18:48;;;;;;;0.30;0.30;;;7.50;97.40;;;;;;4428127;32;20065;-76
2021/04/08 12:21:14;;;;;;;0.28;0.28;;;7.50;97.50;;;;;;4428115;32;20169;-77
2021/04/08 12:23:39;;;;;;;0.30;0.30;;;7.40;97.90;;;;;;4427703;32;20436;-77
2021/04/08 12:26:06;;;;;;;0.20;0.20;;;7.30;99.10;;;;;;4426888;32;20526;-77
2021/04/08 12:28:32;;;;;;;0.40;0.40;;;7.40;98.00;;;;;;4427996;32;20057;-77
2021/04/08 12:31:00;;;;;;;0.40;0.40;;;7.50;99.00;;;;;;4428715;32;20086;-77
2021/04/08 12:33:29;;;;;;;0.40;0.40;;;7.80;99.20;;;;;;4428761;32;20065;-77
2021/04/08 12:35:56;;;;;;;0.37;0.37;;;8.30;98.20;;;;;;4427674;32;20062;-77
2021/04/08 12:38:23;;;;;;;0.30;0.30;;;8.20;96.80;;;;;;4427747;32;20061;-77
2021/04/08 12:40:49;;;;;;;0.52;0.45;;;8.00;97.50;;;;;;4428148;32;20068;-78
2021/04/08 12:43:15;;;;;;;0.40;0.40;;;7.90;97.40;;;;;;4429014;32;20619;-77
2021/04/08 12:45:42;;;;;;;0.50;0.50;;;7.80;97.80;;;;;;4428191;32;20080;-78
2021/04/08 12:48:08;;;;;;;1.15;0.70;;;7.90;98.10;;;;;;4428591;32;20094;-77
2021/04/08 12:50:35;;;;;;;1.90;1.00;;;7.80;97.90;;;;;;4428332;32;20072;-77
2021/04/08 12:53:01;;;;;;;0.52;0.52;;;7.60;98.50;;;;;;4428316;32;20065;-77
2021/04/08 12:55:27;;;;;;;0.30;0.30;;;7.50;99.10;;;;;;4429004;32;20417;-77
2021/04/08 12:57:54;;;;;;;0.32;0.32;;;7.20;99.90;;;;;;4428388;32;20112;-77
2021/04/08 13:00:22;;;;;;;0.30;0.30;;;7.10;99.90;;;;;;4429099;32;20108;-77
2021/04/08 13:02:47;;;;;;;4.07;1.95;;;7.00;99.90;;;;;;4428148;32;20585;-77
2021/04/08 13:05:13;;;;;;;1.55;1.23;;;6.90;99.90;;;;;;4428453;32;20085;-78